sensor_id;sensor_type;location;lat;lon;timestamp;P1;durP1;ratioP1;P2;durP2;ratioP2
72951;SDS011;61102;51.956;5.878;2023-03-16T00:01:25;2.85;;;0.98;;
72951;SDS011;61102;51.956;5.878;2023-03-16T00:03:51;3.35;;;1.00;;
72951;SDS011;61102;51.956;5.878;2023-03-16T00:06:17;3.72;;;1.20;;
72951;SDS011;61102;51.956;5.878;2023-03-16T00:08:44;3.10;;;1.00;;
72951;SDS011;61102;51.956;5.878;2023-03-16T00:11:11;3.50;;;1.10;;
72951;SDS011;61102;51.956;5.878;2023-03-16T00:13:37;3.78;;;1.10;;
72951;SDS011;61102;51.956;5.878;2023-03-16T00:16:06;4.70;;;1.20;;
72951;SDS011;61102;51.956;5.878;2023-03-16T00:18:32;3.40;;;1.00;;
72951;SDS011;61102;51.956;5.878;2023-03-16T00:21:03;5.35;;;1.15;;
72951;SDS011;61102;51.956;5.878;2023-03-16T00:23:30;5.82;;;0.95;;
72951;SDS011;61102;51.956;5.878;2023-03-16T00:26:01;4.28;;;1.10;;
72951;SDS011;61102;51.956;5.878;2023-03-16T00:28:32;3.55;;;1.00;;
72951;SDS011;61102;51.956;5.878;2023-03-16T00:31:05;4.15;;;0.90;;
72951;SDS011;61102;51.956;5.878;2023-03-16T00:33:33;1.83;;;0.80;;
72951;SDS011;61102;51.956;5.878;2023-03-16T00:36:00;4.03;;;0.80;;
72951;SDS011;61102;51.956;5.878;2023-03-16T00:38:27;3.88;;;1.10;;
72951;SDS011;61102;51.956;5.878;2023-03-16T00:40:56;3.60;;;1.25;;
72951;SDS011;61102;51.956;5.878;2023-03-16T00:43:23;3.80;;;0.90;;
72951;SDS011;61102;51.956;5.878;2023-03-16T00:45:56;3.03;;;0.77;;
72951;SDS011;61102;51.956;5.878;2023-03-16T00:48:31;4.20;;;0.95;;
72951;SDS011;61102;51.956;5.878;2023-03-16T00:51:02;5.55;;;0.95;;
72951;SDS011;61102;51.956;5.878;2023-03-16T00:53:35;3.78;;;1.00;;
72951;SDS011;61102;51.956;5.878;2023-03-16T00:56:01;5.13;;;0.93;;
72951;SDS011;61102;51.956;5.878;2023-03-16T00:58:31;4.78;;;1.00;;
72951;SDS011;61102;51.956;5.878;2023-03-16T01:03:31;1.58;;;0.60;;
72951;SDS011;61102;51.956;5.878;2023-03-16T01:06:01;4.55;;;1.00;;
72951;SDS011;61102;51.956;5.878;2023-03-16T01:11:10;2.47;;;0.52;;
72951;SDS011;61102;51.956;5.878;2023-03-16T01:13:43;3.17;;;0.77;;
72951;SDS011;61102;51.956;5.878;2023-03-16T01:16:11;1.88;;;0.70;;
72951;SDS011;61102;51.956;5.878;2023-03-16T01:18:38;3.03;;;1.02;;
72951;SDS011;61102;51.956;5.878;2023-03-16T01:21:05;2.67;;;0.75;;
72951;SDS011;61102;51.956;5.878;2023-03-16T01:23:34;6.05;;;1.27;;
72951;SDS011;61102;51.956;5.878;2023-03-16T01:26:02;4.03;;;1.30;;
72951;SDS011;61102;51.956;5.878;2023-03-16T01:28:29;3.42;;;0.80;;
72951;SDS011;61102;51.956;5.878;2023-03-16T01:31:01;2.85;;;0.75;;
72951;SDS011;61102;51.956;5.878;2023-03-16T01:33:33;4.00;;;1.27;;
72951;SDS011;61102;51.956;5.878;2023-03-16T01:36:07;2.63;;;1.00;;
72951;SDS011;61102;51.956;5.878;2023-03-16T01:38:42;4.22;;;1.00;;
72951;SDS011;61102;51.956;5.878;2023-03-16T01:41:09;2.17;;;0.77;;
72951;SDS011;61102;51.956;5.878;2023-03-16T01:43:36;2.78;;;1.00;;
72951;SDS011;61102;51.956;5.878;2023-03-16T01:51:23;3.17;;;1.00;;
72951;SDS011;61102;51.956;5.878;2023-03-16T01:54:05;2.53;;;0.88;;
72951;SDS011;61102;51.956;5.878;2023-03-16T01:59:18;3.75;;;1.20;;
72951;SDS011;61102;51.956;5.878;2023-03-16T02:01:47;3.28;;;0.90;;
72951;SDS011;61102;51.956;5.878;2023-03-16T02:07:47;3.10;;;0.80;;
72951;SDS011;61102;51.956;5.878;2023-03-16T02:10:17;5.03;;;1.10;;
72951;SDS011;61102;51.956;5.878;2023-03-16T02:12:44;4.10;;;0.82;;
72951;SDS011;61102;51.956;5.878;2023-03-16T02:15:12;4.57;;;1.30;;
72951;SDS011;61102;51.956;5.878;2023-03-16T02:17:40;2.63;;;0.85;;
72951;SDS011;61102;51.956;5.878;2023-03-16T02:20:21;2.63;;;0.80;;
72951;SDS011;61102;51.956;5.878;2023-03-16T02:23:00;2.80;;;0.90;;
72951;SDS011;61102;51.956;5.878;2023-03-16T02:25:29;4.00;;;0.90;;
72951;SDS011;61102;51.956;5.878;2023-03-16T02:30:37;3.63;;;1.10;;
72951;SDS011;61102;51.956;5.878;2023-03-16T02:33:04;3.55;;;0.90;;
72951;SDS011;61102;51.956;5.878;2023-03-16T02:35:31;3.67;;;1.15;;
72951;SDS011;61102;51.956;5.878;2023-03-16T02:37:57;6.68;;;1.48;;
72951;SDS011;61102;51.956;5.878;2023-03-16T02:40:28;8.20;;;1.50;;
72951;SDS011;61102;51.956;5.878;2023-03-16T02:48:59;4.15;;;1.00;;
72951;SDS011;61102;51.956;5.878;2023-03-16T02:51:37;2.50;;;0.93;;
72951;SDS011;61102;51.956;5.878;2023-03-16T02:54:03;1.85;;;0.70;;
72951;SDS011;61102;51.956;5.878;2023-03-16T02:56:32;4.85;;;1.20;;
72951;SDS011;61102;51.956;5.878;2023-03-16T02:58:59;3.28;;;0.90;;
72951;SDS011;61102;51.956;5.878;2023-03-16T03:01:26;2.72;;;0.80;;
72951;SDS011;61102;51.956;5.878;2023-03-16T03:03:53;3.58;;;0.90;;
72951;SDS011;61102;51.956;5.878;2023-03-16T03:06:19;4.18;;;1.00;;
72951;SDS011;61102;51.956;5.878;2023-03-16T03:08:46;3.95;;;1.17;;
72951;SDS011;61102;51.956;5.878;2023-03-16T03:11:12;5.05;;;1.23;;
72951;SDS011;61102;51.956;5.878;2023-03-16T03:13:38;5.07;;;1.42;;
72951;SDS011;61102;51.956;5.878;2023-03-16T03:16:09;3.05;;;1.08;;
72951;SDS011;61102;51.956;5.878;2023-03-16T03:18:35;4.18;;;1.20;;
72951;SDS011;61102;51.956;5.878;2023-03-16T03:21:01;4.65;;;1.05;;
72951;SDS011;61102;51.956;5.878;2023-03-16T03:23:27;4.65;;;1.30;;
72951;SDS011;61102;51.956;5.878;2023-03-16T03:25:56;3.55;;;1.20;;
72951;SDS011;61102;51.956;5.878;2023-03-16T03:28:23;4.65;;;1.30;;
72951;SDS011;61102;51.956;5.878;2023-03-16T03:30:50;4.88;;;1.27;;
72951;SDS011;61102;51.956;5.878;2023-03-16T03:33:16;6.22;;;1.35;;
72951;SDS011;61102;51.956;5.878;2023-03-16T03:35:43;4.32;;;1.08;;
72951;SDS011;61102;51.956;5.878;2023-03-16T03:38:10;3.90;;;1.00;;
72951;SDS011;61102;51.956;5.878;2023-03-16T03:40:36;2.65;;;0.82;;
72951;SDS011;61102;51.956;5.878;2023-03-16T03:43:03;3.35;;;1.10;;
72951;SDS011;61102;51.956;5.878;2023-03-16T03:45:34;3.35;;;1.20;;
72951;SDS011;61102;51.956;5.878;2023-03-16T03:48:00;3.90;;;1.15;;
72951;SDS011;61102;51.956;5.878;2023-03-16T03:50:26;4.15;;;1.02;;
72951;SDS011;61102;51.956;5.878;2023-03-16T03:53:06;3.45;;;1.10;;
72951;SDS011;61102;51.956;5.878;2023-03-16T03:55:41;3.97;;;1.20;;
72951;SDS011;61102;51.956;5.878;2023-03-16T03:58:07;3.50;;;1.10;;
72951;SDS011;61102;51.956;5.878;2023-03-16T04:00:34;5.13;;;1.27;;
72951;SDS011;61102;51.956;5.878;2023-03-16T04:03:00;2.17;;;0.77;;
72951;SDS011;61102;51.956;5.878;2023-03-16T04:05:34;3.55;;;1.00;;
72951;SDS011;61102;51.956;5.878;2023-03-16T04:08:01;4.07;;;1.02;;
72951;SDS011;61102;51.956;5.878;2023-03-16T04:10:27;3.50;;;0.90;;
72951;SDS011;61102;51.956;5.878;2023-03-16T04:15:21;3.08;;;0.90;;
72951;SDS011;61102;51.956;5.878;2023-03-16T04:17:59;5.45;;;1.33;;
72951;SDS011;61102;51.956;5.878;2023-03-16T04:20:26;4.13;;;1.15;;
72951;SDS011;61102;51.956;5.878;2023-03-16T04:22:54;2.47;;;1.00;;
72951;SDS011;61102;51.956;5.878;2023-03-16T04:25:24;3.75;;;1.20;;
72951;SDS011;61102;51.956;5.878;2023-03-16T04:27:52;5.05;;;1.40;;
72951;SDS011;61102;51.956;5.878;2023-03-16T04:30:19;4.95;;;1.30;;
72951;SDS011;61102;51.956;5.878;2023-03-16T04:32:51;4.55;;;1.30;;
72951;SDS011;61102;51.956;5.878;2023-03-16T04:35:19;4.20;;;1.00;;
72951;SDS011;61102;51.956;5.878;2023-03-16T04:37:52;3.78;;;1.17;;
72951;SDS011;61102;51.956;5.878;2023-03-16T04:40:22;4.32;;;1.48;;
72951;SDS011;61102;51.956;5.878;2023-03-16T04:42:55;4.28;;;1.35;;
72951;SDS011;61102;51.956;5.878;2023-03-16T04:45:22;5.47;;;1.50;;
72951;SDS011;61102;51.956;5.878;2023-03-16T04:47:51;2.92;;;1.17;;
72951;SDS011;61102;51.956;5.878;2023-03-16T04:50:17;4.35;;;1.42;;
72951;SDS011;61102;51.956;5.878;2023-03-16T04:52:49;4.30;;;1.20;;
72951;SDS011;61102;51.956;5.878;2023-03-16T04:55:16;4.93;;;1.50;;
72951;SDS011;61102;51.956;5.878;2023-03-16T04:57:42;4.32;;;1.20;;
72951;SDS011;61102;51.956;5.878;2023-03-16T05:00:09;4.38;;;1.50;;
72951;SDS011;61102;51.956;5.878;2023-03-16T05:02:56;3.88;;;1.02;;
72951;SDS011;61102;51.956;5.878;2023-03-16T05:05:25;4.95;;;1.10;;
72951;SDS011;61102;51.956;5.878;2023-03-16T05:07:51;5.43;;;1.55;;
72951;SDS011;61102;51.956;5.878;2023-03-16T05:10:17;3.97;;;1.40;;
72951;SDS011;61102;51.956;5.878;2023-03-16T05:12:44;4.78;;;1.10;;
72951;SDS011;61102;51.956;5.878;2023-03-16T05:15:10;3.42;;;1.13;;
72951;SDS011;61102;51.956;5.878;2023-03-16T05:17:41;5.43;;;1.35;;
72951;SDS011;61102;51.956;5.878;2023-03-16T05:20:10;4.03;;;1.15;;
72951;SDS011;61102;51.956;5.878;2023-03-16T05:25:22;3.03;;;1.02;;
72951;SDS011;61102;51.956;5.878;2023-03-16T05:27:52;3.63;;;1.25;;
72951;SDS011;61102;51.956;5.878;2023-03-16T05:30:33;2.58;;;1.20;;
72951;SDS011;61102;51.956;5.878;2023-03-16T05:33:02;3.22;;;1.13;;
72951;SDS011;61102;51.956;5.878;2023-03-16T05:35:29;7.43;;;1.50;;
72951;SDS011;61102;51.956;5.878;2023-03-16T05:38:00;4.60;;;1.05;;
72951;SDS011;61102;51.956;5.878;2023-03-16T05:40:27;3.58;;;1.00;;
72951;SDS011;61102;51.956;5.878;2023-03-16T05:43:13;4.72;;;1.30;;
72951;SDS011;61102;51.956;5.878;2023-03-16T05:45:45;4.38;;;1.20;;
72951;SDS011;61102;51.956;5.878;2023-03-16T05:48:14;4.95;;;1.48;;
72951;SDS011;61102;51.956;5.878;2023-03-16T05:50:45;3.40;;;1.17;;
72951;SDS011;61102;51.956;5.878;2023-03-16T05:53:14;3.50;;;1.10;;
72951;SDS011;61102;51.956;5.878;2023-03-16T05:55:41;4.88;;;1.25;;
72951;SDS011;61102;51.956;5.878;2023-03-16T05:58:10;4.15;;;1.20;;
72951;SDS011;61102;51.956;5.878;2023-03-16T06:00:37;4.57;;;1.20;;
72951;SDS011;61102;51.956;5.878;2023-03-16T06:03:26;4.80;;;1.35;;
72951;SDS011;61102;51.956;5.878;2023-03-16T06:05:54;3.80;;;1.08;;
72951;SDS011;61102;51.956;5.878;2023-03-16T06:08:29;4.30;;;1.15;;
72951;SDS011;61102;51.956;5.878;2023-03-16T06:11:02;3.85;;;1.30;;
72951;SDS011;61102;51.956;5.878;2023-03-16T06:13:29;4.70;;;1.00;;
72951;SDS011;61102;51.956;5.878;2023-03-16T06:15:55;2.88;;;1.00;;
72951;SDS011;61102;51.956;5.878;2023-03-16T06:18:21;3.15;;;0.90;;
72951;SDS011;61102;51.956;5.878;2023-03-16T06:20:47;2.55;;;0.70;;
72951;SDS011;61102;51.956;5.878;2023-03-16T06:23:13;3.03;;;0.88;;
72951;SDS011;61102;51.956;5.878;2023-03-16T06:25:40;3.92;;;1.00;;
72951;SDS011;61102;51.956;5.878;2023-03-16T06:28:07;2.60;;;0.90;;
72951;SDS011;61102;51.956;5.878;2023-03-16T06:30:33;5.25;;;1.23;;
72951;SDS011;61102;51.956;5.878;2023-03-16T06:32:59;4.82;;;1.40;;
72951;SDS011;61102;51.956;5.878;2023-03-16T06:35:27;5.03;;;1.35;;
72951;SDS011;61102;51.956;5.878;2023-03-16T06:38:10;6.13;;;1.40;;
72951;SDS011;61102;51.956;5.878;2023-03-16T06:41:11;3.60;;;0.93;;
72951;SDS011;61102;51.956;5.878;2023-03-16T06:43:38;2.90;;;0.95;;
72951;SDS011;61102;51.956;5.878;2023-03-16T06:46:04;2.80;;;1.00;;
72951;SDS011;61102;51.956;5.878;2023-03-16T06:48:30;2.88;;;0.90;;
72951;SDS011;61102;51.956;5.878;2023-03-16T06:50:57;3.63;;;1.10;;
72951;SDS011;61102;51.956;5.878;2023-03-16T06:53:26;4.63;;;1.25;;
72951;SDS011;61102;51.956;5.878;2023-03-16T06:55:54;3.53;;;1.10;;
72951;SDS011;61102;51.956;5.878;2023-03-16T06:58:21;2.78;;;0.90;;
72951;SDS011;61102;51.956;5.878;2023-03-16T07:00:47;2.97;;;1.30;;
72951;SDS011;61102;51.956;5.878;2023-03-16T07:03:13;4.13;;;1.15;;
72951;SDS011;61102;51.956;5.878;2023-03-16T07:05:45;3.85;;;1.20;;
72951;SDS011;61102;51.956;5.878;2023-03-16T07:08:11;2.72;;;0.90;;
72951;SDS011;61102;51.956;5.878;2023-03-16T07:10:40;5.82;;;1.30;;
72951;SDS011;61102;51.956;5.878;2023-03-16T07:13:06;4.20;;;1.40;;
72951;SDS011;61102;51.956;5.878;2023-03-16T07:15:32;6.18;;;1.45;;
72951;SDS011;61102;51.956;5.878;2023-03-16T07:17:59;5.82;;;1.63;;
72951;SDS011;61102;51.956;5.878;2023-03-16T07:20:26;4.03;;;1.20;;
72951;SDS011;61102;51.956;5.878;2023-03-16T07:22:54;5.25;;;1.50;;
72951;SDS011;61102;51.956;5.878;2023-03-16T07:25:21;4.50;;;1.33;;
72951;SDS011;61102;51.956;5.878;2023-03-16T07:27:52;4.97;;;1.70;;
72951;SDS011;61102;51.956;5.878;2023-03-16T07:30:24;4.97;;;1.58;;
72951;SDS011;61102;51.956;5.878;2023-03-16T07:32:51;4.28;;;1.63;;
72951;SDS011;61102;51.956;5.878;2023-03-16T07:35:20;6.38;;;1.70;;
72951;SDS011;61102;51.956;5.878;2023-03-16T07:37:46;4.72;;;1.20;;
72951;SDS011;61102;51.956;5.878;2023-03-16T07:40:13;5.13;;;1.52;;
72951;SDS011;61102;51.956;5.878;2023-03-16T07:42:40;6.43;;;1.60;;
72951;SDS011;61102;51.956;5.878;2023-03-16T07:45:14;6.72;;;2.03;;
72951;SDS011;61102;51.956;5.878;2023-03-16T07:47:43;5.45;;;1.75;;
72951;SDS011;61102;51.956;5.878;2023-03-16T07:50:18;7.20;;;1.42;;
72951;SDS011;61102;51.956;5.878;2023-03-16T07:52:46;4.57;;;1.60;;
72951;SDS011;61102;51.956;5.878;2023-03-16T07:55:13;5.40;;;1.60;;
72951;SDS011;61102;51.956;5.878;2023-03-16T07:57:40;6.78;;;1.80;;
72951;SDS011;61102;51.956;5.878;2023-03-16T08:00:08;5.32;;;1.75;;
72951;SDS011;61102;51.956;5.878;2023-03-16T08:02:40;5.40;;;1.70;;
72951;SDS011;61102;51.956;5.878;2023-03-16T08:05:09;5.47;;;1.55;;
72951;SDS011;61102;51.956;5.878;2023-03-16T08:07:36;6.50;;;1.92;;
72951;SDS011;61102;51.956;5.878;2023-03-16T08:10:10;4.75;;;1.48;;
72951;SDS011;61102;51.956;5.878;2023-03-16T08:12:59;6.20;;;2.08;;
72951;SDS011;61102;51.956;5.878;2023-03-16T08:15:26;5.35;;;1.50;;
72951;SDS011;61102;51.956;5.878;2023-03-16T08:17:59;7.03;;;1.63;;
72951;SDS011;61102;51.956;5.878;2023-03-16T08:20:29;6.03;;;1.50;;
72951;SDS011;61102;51.956;5.878;2023-03-16T08:22:55;5.85;;;1.73;;
72951;SDS011;61102;51.956;5.878;2023-03-16T08:25:25;6.90;;;1.70;;
72951;SDS011;61102;51.956;5.878;2023-03-16T08:27:58;5.85;;;1.60;;
72951;SDS011;61102;51.956;5.878;2023-03-16T08:30:24;5.97;;;2.08;;
72951;SDS011;61102;51.956;5.878;2023-03-16T08:33:07;6.55;;;1.67;;
72951;SDS011;61102;51.956;5.878;2023-03-16T08:35:35;5.63;;;1.90;;
72951;SDS011;61102;51.956;5.878;2023-03-16T08:38:00;4.65;;;1.58;;
72951;SDS011;61102;51.956;5.878;2023-03-16T08:40:27;5.32;;;1.70;;
72951;SDS011;61102;51.956;5.878;2023-03-16T08:42:54;5.32;;;1.77;;
72951;SDS011;61102;51.956;5.878;2023-03-16T08:45:20;6.45;;;1.92;;
72951;SDS011;61102;51.956;5.878;2023-03-16T08:50:15;5.68;;;1.70;;
72951;SDS011;61102;51.956;5.878;2023-03-16T08:52:41;8.15;;;2.00;;
72951;SDS011;61102;51.956;5.878;2023-03-16T08:55:08;5.85;;;1.83;;
72951;SDS011;61102;51.956;5.878;2023-03-16T08:57:35;5.65;;;1.80;;
72951;SDS011;61102;51.956;5.878;2023-03-16T09:00:04;6.10;;;2.10;;
72951;SDS011;61102;51.956;5.878;2023-03-16T09:02:39;5.20;;;1.52;;
72951;SDS011;61102;51.956;5.878;2023-03-16T09:05:07;5.80;;;1.50;;
72951;SDS011;61102;51.956;5.878;2023-03-16T09:07:34;5.05;;;1.52;;
72951;SDS011;61102;51.956;5.878;2023-03-16T09:10:02;4.75;;;1.35;;
72951;SDS011;61102;51.956;5.878;2023-03-16T09:12:30;6.93;;;1.50;;
72951;SDS011;61102;51.956;5.878;2023-03-16T09:14:59;4.20;;;1.40;;
72951;SDS011;61102;51.956;5.878;2023-03-16T09:17:25;4.30;;;1.40;;
72951;SDS011;61102;51.956;5.878;2023-03-16T09:19:51;4.22;;;1.40;;
72951;SDS011;61102;51.956;5.878;2023-03-16T09:22:19;4.78;;;1.30;;
72951;SDS011;61102;51.956;5.878;2023-03-16T09:24:45;5.25;;;1.40;;
72951;SDS011;61102;51.956;5.878;2023-03-16T09:27:13;5.45;;;1.48;;
72951;SDS011;61102;51.956;5.878;2023-03-16T09:29:40;4.93;;;1.38;;
72951;SDS011;61102;51.956;5.878;2023-03-16T09:32:07;5.10;;;1.20;;
72951;SDS011;61102;51.956;5.878;2023-03-16T09:34:34;5.47;;;1.45;;
72951;SDS011;61102;51.956;5.878;2023-03-16T09:37:00;5.22;;;1.42;;
72951;SDS011;61102;51.956;5.878;2023-03-16T09:39:27;4.95;;;1.33;;
72951;SDS011;61102;51.956;5.878;2023-03-16T09:41:54;4.45;;;1.50;;
72951;SDS011;61102;51.956;5.878;2023-03-16T09:44:41;4.95;;;1.30;;
72951;SDS011;61102;51.956;5.878;2023-03-16T09:47:25;5.97;;;1.48;;
72951;SDS011;61102;51.956;5.878;2023-03-16T09:49:54;6.97;;;1.63;;
72951;SDS011;61102;51.956;5.878;2023-03-16T09:52:34;7.13;;;1.60;;
72951;SDS011;61102;51.956;5.878;2023-03-16T09:55:26;5.07;;;1.40;;
72951;SDS011;61102;51.956;5.878;2023-03-16T09:57:54;5.15;;;1.15;;
72951;SDS011;61102;51.956;5.878;2023-03-16T10:05:31;4.80;;;1.30;;
72951;SDS011;61102;51.956;5.878;2023-03-16T10:08:11;6.18;;;1.67;;
72951;SDS011;61102;51.956;5.878;2023-03-16T10:16:47;6.63;;;1.02;;
72951;SDS011;61102;51.956;5.878;2023-03-16T10:19:20;8.05;;;1.48;;
72951;SDS011;61102;51.956;5.878;2023-03-16T10:21:54;5.75;;;1.50;;
72951;SDS011;61102;51.956;5.878;2023-03-16T10:24:26;5.75;;;1.65;;
72951;SDS011;61102;51.956;5.878;2023-03-16T10:27:06;5.20;;;1.52;;
72951;SDS011;61102;51.956;5.878;2023-03-16T10:29:42;4.97;;;1.60;;
72951;SDS011;61102;51.956;5.878;2023-03-16T10:32:12;4.80;;;1.35;;
72951;SDS011;61102;51.956;5.878;2023-03-16T10:34:46;5.35;;;1.77;;
72951;SDS011;61102;51.956;5.878;2023-03-16T10:37:22;5.45;;;1.27;;
72951;SDS011;61102;51.956;5.878;2023-03-16T10:39:50;7.28;;;1.60;;
72951;SDS011;61102;51.956;5.878;2023-03-16T10:42:18;6.65;;;1.63;;
72951;SDS011;61102;51.956;5.878;2023-03-16T10:44:45;5.63;;;1.30;;
72951;SDS011;61102;51.956;5.878;2023-03-16T10:47:15;5.53;;;1.60;;
72951;SDS011;61102;51.956;5.878;2023-03-16T10:49:48;5.43;;;1.20;;
72951;SDS011;61102;51.956;5.878;2023-03-16T10:52:22;5.90;;;1.67;;
72951;SDS011;61102;51.956;5.878;2023-03-16T10:54:58;4.85;;;1.30;;
72951;SDS011;61102;51.956;5.878;2023-03-16T10:57:29;7.18;;;1.48;;
72951;SDS011;61102;51.956;5.878;2023-03-16T11:00:13;4.88;;;1.27;;
72951;SDS011;61102;51.956;5.878;2023-03-16T11:02:45;5.47;;;1.65;;
72951;SDS011;61102;51.956;5.878;2023-03-16T11:05:18;4.95;;;1.42;;
72951;SDS011;61102;51.956;5.878;2023-03-16T11:08:12;6.07;;;1.60;;
72951;SDS011;61102;51.956;5.878;2023-03-16T11:10:54;6.25;;;1.80;;
72951;SDS011;61102;51.956;5.878;2023-03-16T11:13:32;6.65;;;1.60;;
72951;SDS011;61102;51.956;5.878;2023-03-16T11:16:22;5.32;;;1.38;;
72951;SDS011;61102;51.956;5.878;2023-03-16T11:21:50;4.30;;;1.10;;
72951;SDS011;61102;51.956;5.878;2023-03-16T11:27:16;6.07;;;1.20;;
72951;SDS011;61102;51.956;5.878;2023-03-16T11:30:03;6.45;;;1.80;;
72951;SDS011;61102;51.956;5.878;2023-03-16T11:32:49;5.15;;;1.60;;
72951;SDS011;61102;51.956;5.878;2023-03-16T11:36:19;5.50;;;1.50;;
72951;SDS011;61102;51.956;5.878;2023-03-16T11:38:53;4.40;;;1.20;;
72951;SDS011;61102;51.956;5.878;2023-03-16T11:44:17;4.20;;;1.17;;
72951;SDS011;61102;51.956;5.878;2023-03-16T11:47:05;5.07;;;1.20;;
72951;SDS011;61102;51.956;5.878;2023-03-16T11:55:16;3.90;;;1.30;;
72951;SDS011;61102;51.956;5.878;2023-03-16T11:57:59;7.10;;;1.50;;
72951;SDS011;61102;51.956;5.878;2023-03-16T12:01:00;4.45;;;1.15;;
72951;SDS011;61102;51.956;5.878;2023-03-16T12:14:52;3.97;;;1.10;;
72951;SDS011;61102;51.956;5.878;2023-03-16T12:17:44;4.80;;;0.90;;
72951;SDS011;61102;51.956;5.878;2023-03-16T12:20:20;3.85;;;1.00;;
72951;SDS011;61102;51.956;5.878;2023-03-16T12:22:51;4.00;;;1.10;;
72951;SDS011;61102;51.956;5.878;2023-03-16T12:25:49;7.03;;;1.73;;
72951;SDS011;61102;51.956;5.878;2023-03-16T12:28:21;6.00;;;1.38;;
72951;SDS011;61102;51.956;5.878;2023-03-16T12:36:02;4.72;;;1.25;;
72951;SDS011;61102;51.956;5.878;2023-03-16T12:38:36;6.15;;;1.25;;
72951;SDS011;61102;51.956;5.878;2023-03-16T12:44:33;5.47;;;1.10;;
72951;SDS011;61102;51.956;5.878;2023-03-16T12:47:12;5.25;;;1.23;;
72951;SDS011;61102;51.956;5.878;2023-03-16T12:49:51;5.55;;;1.15;;
72951;SDS011;61102;51.956;5.878;2023-03-16T12:52:18;5.65;;;1.15;;
72951;SDS011;61102;51.956;5.878;2023-03-16T12:54:48;5.20;;;1.17;;
72951;SDS011;61102;51.956;5.878;2023-03-16T12:57:16;5.18;;;1.23;;
72951;SDS011;61102;51.956;5.878;2023-03-16T12:59:44;3.75;;;0.82;;
72951;SDS011;61102;51.956;5.878;2023-03-16T13:02:48;4.80;;;1.33;;
72951;SDS011;61102;51.956;5.878;2023-03-16T13:05:09;4.05;;;1.00;;
72951;SDS011;61102;51.956;5.878;2023-03-16T13:07:48;4.70;;;1.10;;
72951;SDS011;61102;51.956;5.878;2023-03-16T13:10:16;5.88;;;1.20;;
72951;SDS011;61102;51.956;5.878;2023-03-16T13:12:45;4.78;;;1.17;;
72951;SDS011;61102;51.956;5.878;2023-03-16T13:18:01;5.10;;;1.13;;
72951;SDS011;61102;51.956;5.878;2023-03-16T13:20:31;4.22;;;0.95;;
72951;SDS011;61102;51.956;5.878;2023-03-16T13:28:14;5.30;;;1.20;;
72951;SDS011;61102;51.956;5.878;2023-03-16T13:30:48;3.55;;;0.93;;
72951;SDS011;61102;51.956;5.878;2023-03-16T13:35:45;4.07;;;1.10;;
72951;SDS011;61102;51.956;5.878;2023-03-16T13:38:14;2.72;;;0.82;;
72951;SDS011;61102;51.956;5.878;2023-03-16T13:40:46;3.88;;;1.08;;
72951;SDS011;61102;51.956;5.878;2023-03-16T13:43:17;4.90;;;1.10;;
72951;SDS011;61102;51.956;5.878;2023-03-16T13:45:46;5.03;;;1.27;;
72951;SDS011;61102;51.956;5.878;2023-03-16T13:48:13;6.05;;;1.45;;
72951;SDS011;61102;51.956;5.878;2023-03-16T13:50:40;4.45;;;1.00;;
72951;SDS011;61102;51.956;5.878;2023-03-16T13:53:22;4.47;;;1.10;;
72951;SDS011;61102;51.956;5.878;2023-03-16T13:55:53;7.18;;;1.40;;
72951;SDS011;61102;51.956;5.878;2023-03-16T13:58:38;4.97;;;0.93;;
72951;SDS011;61102;51.956;5.878;2023-03-16T14:01:10;4.50;;;1.13;;
72951;SDS011;61102;51.956;5.878;2023-03-16T14:03:51;4.00;;;1.00;;
72951;SDS011;61102;51.956;5.878;2023-03-16T14:06:29;8.95;;;1.20;;
72951;SDS011;61102;51.956;5.878;2023-03-16T14:08:57;4.80;;;1.25;;
72951;SDS011;61102;51.956;5.878;2023-03-16T14:11:26;5.95;;;1.30;;
72951;SDS011;61102;51.956;5.878;2023-03-16T14:13:54;3.55;;;1.25;;
72951;SDS011;61102;51.956;5.878;2023-03-16T14:16:23;6.22;;;1.45;;
72951;SDS011;61102;51.956;5.878;2023-03-16T14:18:53;4.82;;;1.30;;
72951;SDS011;61102;51.956;5.878;2023-03-16T14:21:24;4.93;;;1.20;;
72951;SDS011;61102;51.956;5.878;2023-03-16T14:27:19;4.07;;;0.90;;
72951;SDS011;61102;51.956;5.878;2023-03-16T14:29:50;4.75;;;1.40;;
72951;SDS011;61102;51.956;5.878;2023-03-16T14:32:29;5.25;;;1.20;;
72951;SDS011;61102;51.956;5.878;2023-03-16T14:35:10;5.85;;;1.02;;
72951;SDS011;61102;51.956;5.878;2023-03-16T14:37:39;3.53;;;0.90;;
72951;SDS011;61102;51.956;5.878;2023-03-16T14:43:16;4.60;;;1.13;;
72951;SDS011;61102;51.956;5.878;2023-03-16T14:45:42;5.55;;;1.10;;
72951;SDS011;61102;51.956;5.878;2023-03-16T14:48:13;4.80;;;1.20;;
72951;SDS011;61102;51.956;5.878;2023-03-16T14:50:46;4.68;;;0.98;;
72951;SDS011;61102;51.956;5.878;2023-03-16T14:55:45;2.78;;;0.77;;
72951;SDS011;61102;51.956;5.878;2023-03-16T14:58:12;5.43;;;1.10;;
72951;SDS011;61102;51.956;5.878;2023-03-16T15:00:38;3.33;;;0.60;;
72951;SDS011;61102;51.956;5.878;2023-03-16T15:03:06;5.85;;;1.05;;
72951;SDS011;61102;51.956;5.878;2023-03-16T15:05:37;4.97;;;1.10;;
72951;SDS011;61102;51.956;5.878;2023-03-16T15:08:10;7.18;;;1.10;;
72951;SDS011;61102;51.956;5.878;2023-03-16T15:10:40;4.95;;;1.30;;
72951;SDS011;61102;51.956;5.878;2023-03-16T15:13:15;3.17;;;0.70;;
72951;SDS011;61102;51.956;5.878;2023-03-16T15:16:03;3.05;;;0.80;;
72951;SDS011;61102;51.956;5.878;2023-03-16T15:18:33;2.45;;;0.70;;
72951;SDS011;61102;51.956;5.878;2023-03-16T15:20:59;4.90;;;1.00;;
72951;SDS011;61102;51.956;5.878;2023-03-16T15:23:26;2.30;;;0.63;;
72951;SDS011;61102;51.956;5.878;2023-03-16T15:25:53;3.90;;;0.93;;
72951;SDS011;61102;51.956;5.878;2023-03-16T15:28:25;4.40;;;1.08;;
72951;SDS011;61102;51.956;5.878;2023-03-16T15:33:19;3.65;;;0.90;;
72951;SDS011;61102;51.956;5.878;2023-03-16T15:35:47;3.80;;;0.90;;
72951;SDS011;61102;51.956;5.878;2023-03-16T15:38:15;3.25;;;0.80;;
72951;SDS011;61102;51.956;5.878;2023-03-16T15:40:45;3.60;;;0.90;;
72951;SDS011;61102;51.956;5.878;2023-03-16T15:43:16;2.40;;;0.70;;
72951;SDS011;61102;51.956;5.878;2023-03-16T15:45:47;2.38;;;0.60;;
72951;SDS011;61102;51.956;5.878;2023-03-16T15:48:14;3.65;;;0.80;;
72951;SDS011;61102;51.956;5.878;2023-03-16T15:50:50;4.10;;;0.90;;
72951;SDS011;61102;51.956;5.878;2023-03-16T15:53:21;3.45;;;0.73;;
72951;SDS011;61102;51.956;5.878;2023-03-16T15:55:54;3.10;;;0.73;;
72951;SDS011;61102;51.956;5.878;2023-03-16T15:58:24;3.78;;;0.80;;
72951;SDS011;61102;51.956;5.878;2023-03-16T16:00:52;2.10;;;0.60;;
72951;SDS011;61102;51.956;5.878;2023-03-16T16:03:21;4.85;;;0.70;;
72951;SDS011;61102;51.956;5.878;2023-03-16T16:05:48;2.97;;;0.60;;
72951;SDS011;61102;51.956;5.878;2023-03-16T16:08:14;2.60;;;0.50;;
72951;SDS011;61102;51.956;5.878;2023-03-16T16:10:41;1.88;;;0.50;;
72951;SDS011;61102;51.956;5.878;2023-03-16T16:13:12;3.55;;;0.60;;
72951;SDS011;61102;51.956;5.878;2023-03-16T16:15:43;5.40;;;1.10;;
72951;SDS011;61102;51.956;5.878;2023-03-16T16:18:23;4.20;;;0.70;;
72951;SDS011;61102;51.956;5.878;2023-03-16T16:20:53;1.80;;;0.43;;
72951;SDS011;61102;51.956;5.878;2023-03-16T16:23:19;2.05;;;0.50;;
72951;SDS011;61102;51.956;5.878;2023-03-16T16:25:45;4.22;;;0.60;;
72951;SDS011;61102;51.956;5.878;2023-03-16T16:28:13;3.60;;;0.80;;
72951;SDS011;61102;51.956;5.878;2023-03-16T16:30:44;4.22;;;0.82;;
72951;SDS011;61102;51.956;5.878;2023-03-16T16:33:24;3.58;;;0.77;;
72951;SDS011;61102;51.956;5.878;2023-03-16T16:35:56;2.53;;;0.50;;
72951;SDS011;61102;51.956;5.878;2023-03-16T16:38:23;4.00;;;0.80;;
72951;SDS011;61102;51.956;5.878;2023-03-16T16:40:50;3.28;;;0.70;;
72951;SDS011;61102;51.956;5.878;2023-03-16T16:43:26;4.60;;;0.65;;
72951;SDS011;61102;51.956;5.878;2023-03-16T16:46:05;3.33;;;0.60;;
72951;SDS011;61102;51.956;5.878;2023-03-16T16:48:44;4.10;;;0.90;;
72951;SDS011;61102;51.956;5.878;2023-03-16T16:53:49;5.72;;;0.70;;